Neopit, Wisconsin
Current Conditions -  °F | °C
As of 6:55 AM on Friday 24 Oct 2014 (Local Time) from KAIG Reporting Station
Moderate Fog Moderate Fog  
Wind Chill: 38°   Ceiling: 300
Heat Index: 42°   Visibility: 0.25mi
Dew Point: 42°   Wind: 6mph
Humidity: 100%   Direction: 250°WSW
Pressure: 30.01"   Gusts: NA
Location:  44.98°N, 88.83°W
Report Text: KAIG 241155Z AUTO 25005KT 1/4SM FG OVC003 06/06 A3001 RMK AO2 70007 T00560056 10068 20056
Loading
Personal Weather Stations






























Interactive Weather Map
Tropical Storm Tracking
New forecast layout! Learn more

10-Day Weather Forecast

Advertisements
Track Severe Weather on mobile